NOZ22J ENGM-LOWS
Flight info
| Callsign | NOZ22J |
|---|---|
| Flight time | N/A |
| Altitude | 31000 |
| Route | OKSAT L996 GETPA/N0457F370 L996 KELIN DCT SALLO DCT MAREM/N0454F380 DCT VESUB T106 NETES T700 BADIT BADIT2R |
| Aircraft | B738/M-SDE2E3FGHIRWXY/LB1 |
Departure
| Time | 2026-05-06 20:41 |
|---|---|
| Airport | Oslo-Gardermoen International Airport (ENGM) |
Arrival
| Time | N/A |
|---|---|
| Airport | Salzburg Airport (LOWS) |
| Time | Latitude | Longitude | Altitude | Speed | Heading |
|---|---|---|---|---|---|
| 2026-05-06 19:58 | 60.19593 | 11.09930 | 680 ft | 0 kts | 106° |
| 2026-05-06 20:21 | 60.19596 | 11.09911 | 678 ft | 4 kts | 106° |
| 2026-05-06 20:21 | 60.19603 | 11.09859 | 682 ft | 4 kts | 106° |
| 2026-05-06 20:21 | 60.19605 | 11.09847 | 683 ft | 2 kts | 106° |
| 2026-05-06 20:28 | 60.19605 | 11.09848 | 684 ft | 0 kts | 105° |
| 2026-05-06 20:28 | 60.19610 | 11.09866 | 679 ft | 2 kts | 43° |
| 2026-05-06 20:29 | 60.19627 | 11.09861 | 684 ft | 3 kts | 328° |
| 2026-05-06 20:29 | 60.19636 | 11.09839 | 679 ft | 4 kts | 310° |
| 2026-05-06 20:29 | 60.19664 | 11.09778 | 684 ft | 8 kts | 323° |
| 2026-05-06 20:29 | 60.19717 | 11.09772 | 683 ft | 8 kts | 13° |
| 2026-05-06 20:30 | 60.19769 | 11.09800 | 683 ft | 8 kts | 15° |
| 2026-05-06 20:30 | 60.19881 | 11.09862 | 682 ft | 11 kts | 16° |
| 2026-05-06 20:30 | 60.19954 | 11.09915 | 679 ft | 11 kts | 38° |
| 2026-05-06 20:31 | 60.19965 | 11.10058 | 679 ft | 11 kts | 104° |
| 2026-05-06 20:31 | 60.19944 | 11.10202 | 684 ft | 11 kts | 106° |
| 2026-05-06 20:31 | 60.19924 | 11.10344 | 678 ft | 11 kts | 105° |
| 2026-05-06 20:31 | 60.19901 | 11.10509 | 683 ft | 13 kts | 105° |
| 2026-05-06 20:32 | 60.19875 | 11.10689 | 683 ft | 13 kts | 107° |
| 2026-05-06 20:32 | 60.19850 | 11.10863 | 680 ft | 13 kts | 105° |
| 2026-05-06 20:32 | 60.19826 | 11.11033 | 682 ft | 13 kts | 106° |
| 2026-05-06 20:32 | 60.19799 | 11.11223 | 681 ft | 16 kts | 106° |
| 2026-05-06 20:33 | 60.19759 | 11.11413 | 680 ft | 11 kts | 128° |
| 2026-05-06 20:33 | 60.19689 | 11.11438 | 682 ft | 11 kts | 195° |
| 2026-05-06 20:33 | 60.19606 | 11.11389 | 682 ft | 14 kts | 197° |
| 2026-05-06 20:33 | 60.19508 | 11.11333 | 681 ft | 15 kts | 195° |
| 2026-05-06 20:34 | 60.19413 | 11.11276 | 682 ft | 14 kts | 197° |
| 2026-05-06 20:34 | 60.19322 | 11.11225 | 683 ft | 13 kts | 197° |
| 2026-05-06 20:34 | 60.19227 | 11.11170 | 684 ft | 15 kts | 195° |
| 2026-05-06 20:34 | 60.19123 | 11.11110 | 683 ft | 15 kts | 196° |
| 2026-05-06 20:35 | 60.19022 | 11.11051 | 682 ft | 15 kts | 196° |
| 2026-05-06 20:35 | 60.18926 | 11.10995 | 682 ft | 14 kts | 195° |
| 2026-05-06 20:35 | 60.18829 | 11.10939 | 678 ft | 16 kts | 196° |
| 2026-05-06 20:35 | 60.18709 | 11.10871 | 679 ft | 20 kts | 197° |
| 2026-05-06 20:36 | 60.18569 | 11.10789 | 681 ft | 21 kts | 197° |
| 2026-05-06 20:36 | 60.18432 | 11.10711 | 680 ft | 20 kts | 195° |
| 2026-05-06 20:36 | 60.18299 | 11.10632 | 680 ft | 20 kts | 196° |
| 2026-05-06 20:36 | 60.18169 | 11.10561 | 679 ft | 19 kts | 196° |
| 2026-05-06 20:37 | 60.18044 | 11.10487 | 678 ft | 18 kts | 195° |
| 2026-05-06 20:37 | 60.17924 | 11.10419 | 677 ft | 18 kts | 196° |
| 2026-05-06 20:37 | 60.17808 | 11.10351 | 677 ft | 17 kts | 198° |
| 2026-05-06 20:37 | 60.17706 | 11.10292 | 677 ft | 11 kts | 193° |
| 2026-05-06 20:38 | 60.17646 | 11.10364 | 674 ft | 12 kts | 110° |
| 2026-05-06 20:38 | 60.17626 | 11.10506 | 675 ft | 4 kts | 106° |
| 2026-05-06 20:38 | 60.17624 | 11.10523 | 676 ft | 0 kts | 106° |
| 2026-05-06 20:39 | 60.17623 | 11.10528 | 676 ft | 3 kts | 106° |
| 2026-05-06 20:39 | 60.17608 | 11.10634 | 678 ft | 12 kts | 105° |
| 2026-05-06 20:39 | 60.17633 | 11.10797 | 679 ft | 13 kts | 43° |
| 2026-05-06 20:39 | 60.17719 | 11.10859 | 677 ft | 17 kts | 14° |
| 2026-05-06 20:40 | 60.17820 | 11.10916 | 679 ft | 0 kts | 17° |
| 2026-05-06 20:40 | 60.17852 | 11.10935 | 678 ft | 26 kts | 17° |
| 2026-05-06 20:40 | 60.18280 | 11.11185 | 681 ft | 99 kts | 16° |
| 2026-05-06 20:41 | 60.19148 | 11.11685 | 682 ft | 158 kts | 16° |
| 2026-05-06 20:41 | 60.20249 | 11.12367 | 1305 ft | 162 kts | 18° |
| 2026-05-06 20:41 | 60.21193 | 11.13577 | 2051 ft | 171 kts | 57° |
| 2026-05-06 20:41 | 60.21499 | 11.16064 | 2411 ft | 200 kts | 84° |
| 2026-05-06 20:42 | 60.21661 | 11.19024 | 2652 ft | 225 kts | 81° |
| 2026-05-06 20:42 | 60.21896 | 11.22251 | 3017 ft | 239 kts | 80° |
| 2026-05-06 20:42 | 60.22177 | 11.25663 | 3336 ft | 257 kts | 79° |
| 2026-05-06 20:42 | 60.22493 | 11.29280 | 3933 ft | 266 kts | 79° |
| 2026-05-06 20:43 | 60.22831 | 11.32938 | 4861 ft | 266 kts | 77° |
| 2026-05-06 20:43 | 60.23280 | 11.36565 | 5701 ft | 269 kts | 75° |
| 2026-05-06 20:43 | 60.23414 | 11.40313 | 6474 ft | 273 kts | 104° |
| 2026-05-06 20:43 | 60.22501 | 11.43605 | 7226 ft | 274 kts | 139° |
| 2026-05-06 20:44 | 60.20880 | 11.45582 | 7985 ft | 274 kts | 161° |
| 2026-05-06 20:44 | 60.19075 | 11.46765 | 8847 ft | 273 kts | 166° |
| 2026-05-06 20:44 | 60.17241 | 11.47809 | 9678 ft | 275 kts | 167° |
| 2026-05-06 20:44 | 60.15380 | 11.48839 | 10331 ft | 283 kts | 168° |
| 2026-05-06 20:45 | 60.13403 | 11.49929 | 10526 ft | 307 kts | 168° |
| 2026-05-06 20:45 | 60.11271 | 11.51117 | 10711 ft | 329 kts | 168° |
| 2026-05-06 20:45 | 60.09017 | 11.52393 | 11074 ft | 343 kts | 168° |
| 2026-05-06 20:45 | 60.06699 | 11.53722 | 11711 ft | 349 kts | 168° |
| 2026-05-06 20:46 | 60.04354 | 11.55077 | 12452 ft | 353 kts | 168° |
| 2026-05-06 20:46 | 60.01983 | 11.56450 | 13183 ft | 357 kts | 169° |
| 2026-05-06 20:46 | 59.99581 | 11.57840 | 13898 ft | 362 kts | 169° |
| 2026-05-06 20:46 | 59.97152 | 11.59246 | 14578 ft | 365 kts | 170° |
| 2026-05-06 20:47 | 59.94700 | 11.60663 | 15232 ft | 369 kts | 169° |
| 2026-05-06 20:47 | 59.92180 | 11.62116 | 15883 ft | 375 kts | 169° |
| 2026-05-06 20:47 | 59.89660 | 11.63568 | 16570 ft | 379 kts | 170° |
| 2026-05-06 20:47 | 59.87117 | 11.65032 | 17255 ft | 383 kts | 170° |
| 2026-05-06 20:48 | 59.84545 | 11.66510 | 17912 ft | 387 kts | 171° |
| 2026-05-06 20:48 | 59.81943 | 11.68002 | 18517 ft | 391 kts | 171° |
| 2026-05-06 20:48 | 59.79320 | 11.69504 | 19111 ft | 394 kts | 171° |
| 2026-05-06 20:48 | 59.76675 | 11.71017 | 19731 ft | 397 kts | 171° |
| 2026-05-06 20:49 | 59.74016 | 11.72535 | 20321 ft | 400 kts | 171° |
| 2026-05-06 20:49 | 59.71333 | 11.74064 | 20884 ft | 403 kts | 171° |
| 2026-05-06 20:49 | 59.68627 | 11.75604 | 21459 ft | 406 kts | 171° |
| 2026-05-06 20:49 | 59.65905 | 11.77149 | 22016 ft | 409 kts | 171° |
| 2026-05-06 20:50 | 59.63157 | 11.78706 | 22484 ft | 413 kts | 171° |
| 2026-05-06 20:50 | 59.60370 | 11.80281 | 22920 ft | 419 kts | 171° |
| 2026-05-06 20:50 | 59.57565 | 11.81867 | 23514 ft | 419 kts | 171° |
| 2026-05-06 20:50 | 59.54759 | 11.83455 | 24007 ft | 421 kts | 171° |
| 2026-05-06 20:51 | 59.51940 | 11.85044 | 24457 ft | 422 kts | 171° |
| 2026-05-06 20:51 | 59.49070 | 11.86658 | 24923 ft | 424 kts | 171° |
| 2026-05-06 20:51 | 59.46232 | 11.88251 | 25372 ft | 425 kts | 171° |
| 2026-05-06 20:51 | 59.43378 | 11.89851 | 25815 ft | 427 kts | 172° |
| 2026-05-06 20:52 | 59.40519 | 11.91451 | 26240 ft | 428 kts | 172° |
| 2026-05-06 20:52 | 59.37650 | 11.93052 | 26663 ft | 430 kts | 172° |
| 2026-05-06 20:52 | 59.34763 | 11.94615 | 27057 ft | 429 kts | 174° |
| 2026-05-06 20:52 | 59.31838 | 11.95500 | 27366 ft | 423 kts | 182° |
| 2026-05-06 20:53 | 59.28925 | 11.95451 | 27765 ft | 417 kts | 190° |
| 2026-05-06 20:53 | 59.26039 | 11.95078 | 28349 ft | 414 kts | 190° |
| 2026-05-06 20:53 | 59.23183 | 11.94722 | 29006 ft | 409 kts | 190° |
| 2026-05-06 20:53 | 59.20360 | 11.94391 | 29635 ft | 405 kts | 190° |
| 2026-05-06 20:54 | 59.17550 | 11.94078 | 30135 ft | 404 kts | 190° |
| 2026-05-06 20:54 | 59.14744 | 11.93774 | 30506 ft | 404 kts | 190° |
| 2026-05-06 20:54 | 59.11936 | 11.93475 | 30822 ft | 405 kts | 190° |
| 2026-05-06 20:54 | 59.09110 | 11.93176 | 30945 ft | 408 kts | 190° |
| 2026-05-06 20:55 | 59.06239 | 11.92874 | 30958 ft | 407 kts | 190° |
| 2026-05-06 20:55 | 59.00611 | 11.92278 | 30956 ft | 404 kts | 190° |
| 2026-05-06 20:56 | 58.94984 | 11.91644 | 30971 ft | 407 kts | 190° |
| 2026-05-06 20:56 | 58.92145 | 11.91322 | 31179 ft | 410 kts | 190° |
| 2026-05-06 20:56 | 58.89300 | 11.91006 | 31491 ft | 411 kts | 190° |
| 2026-05-06 20:56 | 58.86390 | 11.90682 | 31634 ft | 415 kts | 189° |
| 2026-05-06 20:57 | 58.83493 | 11.90360 | 31804 ft | 419 kts | 189° |
| 2026-05-06 20:57 | 58.80561 | 11.90231 | 32053 ft | 425 kts | 184° |
| 2026-05-06 20:57 | 58.77595 | 11.90901 | 32431 ft | 430 kts | 178° |
| 2026-05-06 20:57 | 58.74648 | 11.91771 | 32800 ft | 428 kts | 178° |
| 2026-05-06 20:58 | 58.71711 | 11.92625 | 33149 ft | 427 kts | 179° |
| 2026-05-06 20:58 | 58.68772 | 11.93454 | 33433 ft | 427 kts | 179° |
| 2026-05-06 20:58 | 58.65828 | 11.94263 | 33732 ft | 427 kts | 179° |
| 2026-05-06 20:58 | 58.62888 | 11.95061 | 34053 ft | 426 kts | 179° |
| 2026-05-06 20:59 | 58.59950 | 11.95854 | 34282 ft | 427 kts | 179° |
| 2026-05-06 20:59 | 58.57007 | 11.96646 | 34456 ft | 428 kts | 179° |
| 2026-05-06 20:59 | 58.54049 | 11.97443 | 34651 ft | 430 kts | 179° |
| 2026-05-06 20:59 | 58.51086 | 11.98242 | 34885 ft | 430 kts | 178° |
| 2026-05-06 21:00 | 58.49086 | 11.98783 | 35031 ft | 430 kts | 178° |
| 2026-05-06 21:00 | 58.46115 | 11.99583 | 35168 ft | 432 kts | 178° |
| 2026-05-06 21:00 | 58.43138 | 12.00385 | 35412 ft | 431 kts | 178° |
| 2026-05-06 21:00 | 58.40170 | 12.01184 | 35627 ft | 432 kts | 178° |
| 2026-05-06 21:01 | 58.37187 | 12.01984 | 35789 ft | 433 kts | 178° |
| 2026-05-06 21:01 | 58.34158 | 12.02795 | 35975 ft | 434 kts | 178° |
| 2026-05-06 21:01 | 58.31162 | 12.03596 | 36174 ft | 435 kts | 178° |
| 2026-05-06 21:01 | 58.28165 | 12.04396 | 36375 ft | 435 kts | 178° |
| 2026-05-06 21:02 | 58.25159 | 12.05197 | 36556 ft | 436 kts | 177° |
| 2026-05-06 21:02 | 58.22157 | 12.06200 | 36735 ft | 440 kts | 174° |
| 2026-05-06 21:02 | 58.19123 | 12.07471 | 36932 ft | 441 kts | 172° |
| 2026-05-06 21:02 | 58.16133 | 12.08813 | 37120 ft | 442 kts | 172° |
| 2026-05-06 21:03 | 58.13178 | 12.10163 | 37306 ft | 443 kts | 172° |
| 2026-05-06 21:03 | 58.10138 | 12.11543 | 37479 ft | 444 kts | 172° |
| 2026-05-06 21:03 | 58.07135 | 12.12888 | 37645 ft | 444 kts | 172° |
| 2026-05-06 21:03 | 58.04127 | 12.14217 | 37822 ft | 444 kts | 172° |
| 2026-05-06 21:04 | 58.01113 | 12.15535 | 37959 ft | 445 kts | 172° |
| 2026-05-06 21:04 | 57.95053 | 12.18156 | 37962 ft | 447 kts | 172° |
| 2026-05-06 21:05 | 57.88972 | 12.20774 | 37936 ft | 444 kts | 172° |
| 2026-05-06 21:05 | 57.82931 | 12.23366 | 37951 ft | 441 kts | 172° |
| 2026-05-06 21:06 | 57.76962 | 12.25916 | 37966 ft | 439 kts | 173° |
| 2026-05-06 21:06 | 57.71014 | 12.28448 | 37968 ft | 438 kts | 173° |
| 2026-05-06 21:07 | 57.65062 | 12.30973 | 37974 ft | 438 kts | 173° |
| 2026-05-06 21:07 | 57.59111 | 12.33489 | 37946 ft | 439 kts | 172° |
| 2026-05-06 21:08 | 57.53145 | 12.36004 | 37968 ft | 440 kts | 172° |
| 2026-05-06 21:08 | 57.47157 | 12.38519 | 37975 ft | 442 kts | 172° |
| 2026-05-06 21:09 | 57.41143 | 12.41038 | 37983 ft | 444 kts | 172° |
| 2026-05-06 21:09 | 57.35099 | 12.43561 | 37974 ft | 446 kts | 172° |
| 2026-05-06 21:10 | 57.29043 | 12.46080 | 37958 ft | 447 kts | 172° |
| 2026-05-06 21:10 | 57.22972 | 12.48599 | 37976 ft | 447 kts | 172° |
| 2026-05-06 21:11 | 57.16889 | 12.51113 | 37969 ft | 448 kts | 172° |
| 2026-05-06 21:11 | 57.10812 | 12.53616 | 37966 ft | 447 kts | 172° |
| 2026-05-06 21:12 | 57.04746 | 12.56107 | 37976 ft | 446 kts | 172° |
| 2026-05-06 21:12 | 56.98701 | 12.58581 | 37972 ft | 444 kts | 172° |
| 2026-05-06 21:13 | 56.92679 | 12.61036 | 37976 ft | 443 kts | 172° |
| 2026-05-06 21:13 | 56.86673 | 12.63477 | 37996 ft | 441 kts | 172° |
| 2026-05-06 21:14 | 56.80678 | 12.65905 | 37990 ft | 441 kts | 172° |
| 2026-05-06 21:14 | 56.74695 | 12.68320 | 37985 ft | 440 kts | 172° |
| 2026-05-06 21:15 | 56.68727 | 12.70721 | 37991 ft | 439 kts | 172° |
| 2026-05-06 21:15 | 56.62763 | 12.73113 | 37992 ft | 439 kts | 172° |
| 2026-05-06 21:16 | 56.56803 | 12.75495 | 37998 ft | 439 kts | 172° |
| 2026-05-06 21:16 | 56.50830 | 12.77875 | 37995 ft | 440 kts | 172° |
| 2026-05-06 21:17 | 56.44847 | 12.80251 | 37955 ft | 440 kts | 172° |